createdAt,value
2022-12-05T00:00:55.375Z,101747.16
2022-12-05T00:03:36.259Z,101745.16
2022-12-05T00:06:18.175Z,101746.84
2022-12-05T00:08:59.105Z,101752.34
2022-12-05T00:11:39.014Z,101741.72
2022-12-05T00:14:22.234Z,101732.94
2022-12-05T00:17:03.298Z,101742.44
2022-12-05T00:19:44.691Z,101739.75
2022-12-05T00:22:24.463Z,101738.19
2022-12-05T00:25:02.350Z,101734.53
2022-12-05T00:27:42.474Z,101737.22
2022-12-05T00:30:24.291Z,101732.81
2022-12-05T00:33:05.308Z,101735.44
2022-12-05T00:35:45.131Z,101730.97
2022-12-05T00:38:26.916Z,101731.69
2022-12-05T00:41:08.891Z,101739.31
2022-12-05T00:43:49.342Z,101748.25
2022-12-05T00:46:31.786Z,101739.84
2022-12-05T00:49:12.426Z,101741.53
2022-12-05T00:51:53.989Z,101740.69
2022-12-05T00:54:36.930Z,101751.09
2022-12-05T00:57:19.964Z,101743.41
2022-12-05T01:00:00.965Z,101740.78
2022-12-05T01:02:40.818Z,101743.31
2022-12-05T01:05:22.569Z,101744.84
2022-12-05T01:08:03.773Z,101735.69
2022-12-05T01:10:54.462Z,101740.59
2022-12-05T01:13:34.442Z,101742.00
2022-12-05T01:16:17.838Z,101739.41
2022-12-05T01:18:59.292Z,101741.16
2022-12-05T01:21:42.364Z,101752.22
2022-12-05T01:24:23.507Z,101754.06
2022-12-05T01:27:04.644Z,101753.19
2022-12-05T01:29:44.562Z,101752.28
2022-12-05T01:32:25.962Z,101756.88
2022-12-05T01:35:09.847Z,101744.31
2022-12-05T01:37:50.372Z,101759.09
2022-12-05T01:40:32.095Z,101758.31
2022-12-05T01:43:15.367Z,101757.53
2022-12-05T01:45:56.234Z,101746.41
2022-12-05T01:48:37.727Z,101753.28
2022-12-05T01:51:19.052Z,101752.56
2022-12-05T01:54:00.326Z,101741.72
2022-12-05T01:56:40.158Z,101751.25
2022-12-05T01:59:19.984Z,101741.47
2022-12-05T02:01:59.827Z,101743.00
2022-12-05T02:04:42.567Z,101743.84
2022-12-05T02:07:22.907Z,101749.41
2022-12-05T02:10:07.048Z,101749.41
2022-12-05T02:12:47.015Z,101755.41
2022-12-05T02:15:33.209Z,101753.88
2022-12-05T02:18:19.909Z,101751.03
2022-12-05T02:21:05.729Z,101764.47
2022-12-05T02:23:54.699Z,101759.72
2022-12-05T02:26:42.201Z,101762.22
2022-12-05T02:29:50.742Z,101757.75
2022-12-05T02:32:35.749Z,101756.81
2022-12-05T02:35:21.639Z,101756.47
2022-12-05T02:38:02.925Z,101757.88
2022-12-05T02:40:44.651Z,101749.09
2022-12-05T02:43:29.789Z,101754.41
2022-12-05T02:46:14.232Z,101750.16
2022-12-05T02:48:58.795Z,101750.16
2022-12-05T02:51:43.210Z,101753.34
2022-12-05T02:54:25.013Z,101753.09
2022-12-05T02:57:06.280Z,101743.38
2022-12-05T02:59:46.104Z,101750.94
2022-12-05T03:02:26.820Z,101749.25
2022-12-05T03:05:10.082Z,101751.66
2022-12-05T03:07:50.594Z,101757.59
2022-12-05T03:10:32.250Z,101759.44
2022-12-05T03:13:16.064Z,101756.03
2022-12-05T03:15:56.575Z,101761.28
2022-12-05T03:18:38.422Z,101760.66
2022-12-05T03:21:21.932Z,101771.78
2022-12-05T03:24:04.937Z,101761.28
2022-12-05T03:26:47.423Z,101774.38
2022-12-05T03:29:30.212Z,101765.53
2022-12-05T03:32:15.002Z,101762.72
2022-12-05T03:34:59.989Z,101772.63
2022-12-05T03:37:47.367Z,101768.31
2022-12-05T03:40:32.905Z,101775.31
2022-12-05T03:43:15.609Z,101778.84
2022-12-05T03:45:56.629Z,101782.88
2022-12-05T03:48:38.066Z,101779.78
2022-12-05T03:51:18.448Z,101778.94
2022-12-05T03:53:59.222Z,101780.41
2022-12-05T03:56:41.583Z,101784.81
2022-12-05T03:59:26.677Z,101782.84
2022-12-05T04:02:08.627Z,101782.78
2022-12-05T04:04:49.801Z,101781.84
2022-12-05T04:07:30.157Z,101787.09
2022-12-05T04:10:13.970Z,101788.78
2022-12-05T04:12:55.076Z,101774.91
2022-12-05T04:15:49.895Z,101780.84
2022-12-05T04:18:32.090Z,101776.59
2022-12-05T04:21:33.068Z,101779.94
2022-12-05T04:24:34.376Z,101776.72
2022-12-05T04:27:17.730Z,101775.81
2022-12-05T04:30:05.753Z,101773.97
2022-12-05T04:32:47.521Z,101777.31
2022-12-05T04:35:29.105Z,101771.34
2022-12-05T04:38:10.161Z,101779.06
2022-12-05T04:40:52.291Z,101784.16
2022-12-05T04:43:34.450Z,101775.75
2022-12-05T04:46:17.608Z,101779.84
2022-12-05T04:49:01.571Z,101778.06
2022-12-05T04:51:43.504Z,101781.84
2022-12-05T04:54:25.121Z,101778.31
2022-12-05T04:57:08.150Z,101774.91
2022-12-05T04:59:50.805Z,101773.06
2022-12-05T05:02:34.782Z,101785.25
2022-12-05T05:05:15.105Z,101784.16
2022-12-05T05:07:58.266Z,101790.34
2022-12-05T05:10:43.047Z,101787.22
2022-12-05T05:13:25.857Z,101785.81
2022-12-05T05:16:07.560Z,101799.34
2022-12-05T05:18:48.645Z,101796.28
2022-12-05T05:21:30.236Z,101795.06
2022-12-05T05:24:11.641Z,101802.69
2022-12-05T05:26:57.521Z,101799.97
2022-12-05T05:29:38.689Z,101802.69
2022-12-05T05:32:16.590Z,101803.22
2022-12-05T05:34:56.695Z,101802.81
2022-12-05T05:37:36.509Z,101804.66
2022-12-05T05:40:16.397Z,101800.31
2022-12-05T05:42:56.158Z,101799.53
2022-12-05T05:45:38.572Z,101799.53
2022-12-05T05:48:18.928Z,101803.94
2022-12-05T05:51:00.693Z,101805.63
2022-12-05T05:53:42.038Z,101804.06
2022-12-05T05:56:23.221Z,101812.66
2022-12-05T05:59:04.829Z,101808.19
2022-12-05T06:01:48.020Z,101807.47
2022-12-05T06:04:29.079Z,101811.03
2022-12-05T06:07:10.394Z,101816.13
2022-12-05T06:09:50.198Z,101817.34
2022-12-05T06:12:30.069Z,101813.56
2022-12-05T06:15:10.668Z,101818.97
2022-12-05T06:17:51.232Z,101816.13
2022-12-05T06:20:33.064Z,101814.34
2022-12-05T06:23:14.028Z,101818.81
2022-12-05T06:25:55.308Z,101827.59
2022-12-05T06:28:37.584Z,101827.59
2022-12-05T06:31:18.906Z,101823.06
2022-12-05T06:34:02.561Z,101825.91
2022-12-05T06:36:42.663Z,101826.03
2022-12-05T06:39:22.482Z,101828.31
2022-12-05T06:42:02.465Z,101825.69
2022-12-05T06:44:43.703Z,101831.78
2022-12-05T06:47:25.536Z,101829.22
2022-12-05T06:50:07.882Z,101828.38
2022-12-05T06:52:47.927Z,101837.94
2022-12-05T06:55:29.716Z,101837.91
2022-12-05T06:58:12.719Z,101841.63
2022-12-05T07:01:11.601Z,101852.75
2022-12-05T07:03:50.832Z,101849.28
2022-12-05T07:06:31.036Z,101845.94
2022-12-05T07:09:14.378Z,101847.66
2022-12-05T07:11:55.471Z,101845.69
2022-12-05T07:14:50.635Z,101848.34
2022-12-05T07:17:31.015Z,101850.97
2022-12-05T07:20:12.620Z,101849.25
2022-12-05T07:22:55.789Z,101852.81
2022-12-05T07:25:36.786Z,101859.03
2022-12-05T07:28:18.660Z,101854.00
2022-12-05T07:31:02.942Z,101861.94
2022-12-05T07:33:46.294Z,101858.41
2022-12-05T07:36:29.281Z,101861.88
2022-12-05T07:39:12.275Z,101864.34
2022-12-05T07:41:53.298Z,101866.31
2022-12-05T07:44:35.286Z,101862.66
2022-12-05T07:47:16.179Z,101871.81
2022-12-05T07:49:57.748Z,101863.72
2022-12-05T07:52:40.875Z,101875.03
2022-12-05T07:55:21.938Z,101866.41
2022-12-05T07:58:00.069Z,101875.03
2022-12-05T08:01:06.489Z,101870.50
2022-12-05T08:03:48.946Z,101875.75
2022-12-05T08:06:28.789Z,101875.59
2022-12-05T08:09:09.728Z,101879.78
2022-12-05T08:11:52.602Z,101877.97
2022-12-05T08:14:34.127Z,101881.84
2022-12-05T08:17:14.013Z,101891.13
2022-12-05T08:19:56.242Z,101886.56
2022-12-05T08:22:36.774Z,101888.25
2022-12-05T08:25:16.672Z,101891.09
2022-12-05T08:27:57.979Z,101892.56
2022-12-05T08:30:37.901Z,101888.13
2022-12-05T08:33:19.187Z,101895.91
2022-12-05T08:36:02.254Z,101896.06
2022-12-05T08:38:42.130Z,101893.50
2022-12-05T08:41:21.810Z,101896.84
2022-12-05T08:44:03.016Z,101901.00
2022-12-05T08:46:43.545Z,101902.72
2022-12-05T08:49:24.463Z,101902.72
2022-12-05T08:52:02.382Z,101913.88
2022-12-05T08:54:44.634Z,101909.41
2022-12-05T08:57:25.530Z,101910.31
2022-12-05T09:00:08.276Z,101916.13
2022-12-05T09:02:50.492Z,101910.81
2022-12-05T09:05:33.447Z,101914.44
2022-12-05T09:08:14.402Z,101920.09
2022-12-05T09:10:55.729Z,101915.78
2022-12-05T09:13:35.632Z,101922.78
2022-12-05T09:16:17.789Z,101917.38
2022-12-05T09:18:58.480Z,101917.00
2022-12-05T09:21:41.918Z,101922.19
2022-12-05T09:24:24.763Z,101924.25
2022-12-05T09:27:08.054Z,101916.94
2022-12-05T09:29:48.898Z,101925.44
2022-12-05T09:32:32.277Z,101922.31
2022-12-05T09:35:13.286Z,101924.03
2022-12-05T09:37:56.952Z,101918.94
2022-12-05T09:40:38.276Z,101916.00
2022-12-05T09:43:20.547Z,101913.13
2022-12-05T09:46:01.235Z,101915.88
2022-12-05T09:48:41.819Z,101922.47
2022-12-05T09:51:21.643Z,101911.63
2022-12-05T09:54:01.423Z,101913.69
2022-12-05T09:56:41.531Z,101915.38
2022-12-05T09:59:22.718Z,101908.84
2022-12-05T10:02:07.171Z,101906.88
2022-12-05T10:04:58.537Z,101898.03
2022-12-05T10:07:42.259Z,101895.94
2022-12-05T10:10:31.671Z,101894.75
2022-12-05T10:13:17.578Z,101893.75
2022-12-05T10:15:58.911Z,101889.63
2022-12-05T10:18:40.719Z,101883.41
2022-12-05T10:21:22.003Z,101865.75
2022-12-05T10:24:02.967Z,101869.00
2022-12-05T10:26:44.839Z,101869.44
2022-12-05T10:29:27.114Z,101863.66
2022-12-05T10:32:13.907Z,101853.75
2022-12-05T10:34:55.810Z,101854.09
2022-12-05T10:37:35.974Z,101854.09
2022-12-05T10:40:16.175Z,101853.00
2022-12-05T10:42:57.245Z,101848.63
2022-12-05T10:45:37.093Z,101836.63
2022-12-05T10:48:19.022Z,101831.94
2022-12-05T10:51:00.798Z,101823.75
2022-12-05T10:53:42.597Z,101818.88
2022-12-05T10:56:39.046Z,101808.00
2022-12-05T10:59:20.877Z,101803.13
2022-12-05T11:02:01.543Z,101795.13
2022-12-05T11:04:43.915Z,101780.09
2022-12-05T11:07:26.127Z,101786.81
2022-12-05T11:10:23.568Z,101780.72
2022-12-05T11:13:05.387Z,101775.31
2022-12-05T11:15:53.814Z,101780.75
2022-12-05T11:18:37.468Z,101775.19
2022-12-05T11:21:19.976Z,101779.91
2022-12-05T11:24:00.187Z,101777.81
2022-12-05T11:26:42.573Z,101773.91
2022-12-05T11:29:33.343Z,101772.13
2022-12-05T11:32:19.613Z,101766.72
2022-12-05T11:35:27.304Z,101760.13
2022-12-05T11:38:06.710Z,101759.00
2022-12-05T11:40:48.787Z,101750.28
2022-12-05T11:43:33.997Z,101751.03
2022-12-05T11:46:16.831Z,101750.19
2022-12-05T11:49:01.510Z,101745.03
2022-12-05T11:51:43.294Z,101743.16
2022-12-05T11:55:02.888Z,101741.41
2022-12-05T11:57:33.147Z,101743.09
2022-12-05T12:00:24.548Z,101743.16
2022-12-05T12:03:21.213Z,101743.84
2022-12-05T12:06:05.416Z,101725.63
2022-12-05T12:08:48.699Z,101724.09
2022-12-05T12:11:30.680Z,101724.97
2022-12-05T12:14:14.204Z,101727.41
2022-12-05T12:16:58.104Z,101728.59
2022-12-05T12:19:44.822Z,101727.50
2022-12-05T12:22:32.084Z,101728.34
2022-12-05T12:25:21.714Z,101729.19
2022-12-05T12:28:05.979Z,101731.06
2022-12-05T12:30:50.511Z,101735.44
2022-12-05T12:33:33.409Z,101734.44
2022-12-05T12:36:16.453Z,101741.56
2022-12-05T12:39:10.663Z,101738.00
2022-12-05T12:41:54.632Z,101737.16
2022-12-05T12:44:41.180Z,101736.31
2022-12-05T12:47:23.779Z,101735.38
2022-12-05T12:50:04.654Z,101736.16
2022-12-05T12:52:50.107Z,101731.75
2022-12-05T12:55:36.538Z,101730.72
2022-12-05T12:58:22.902Z,101727.41
2022-12-05T13:01:06.481Z,101728.09
2022-12-05T13:03:51.711Z,101730.03
2022-12-05T13:06:34.724Z,101727.50
2022-12-05T13:09:17.673Z,101728.97
2022-12-05T13:11:59.897Z,101739.78
2022-12-05T13:14:40.433Z,101742.94
2022-12-05T13:17:21.872Z,101737.91
2022-12-05T13:20:02.970Z,101739.38
2022-12-05T13:22:43.878Z,101737.53
2022-12-05T13:25:25.259Z,101735.81
2022-12-05T13:28:06.570Z,101735.81
2022-12-05T13:30:58.586Z,101742.78
2022-12-05T13:33:43.424Z,101742.16
2022-12-05T13:36:39.948Z,101735.97
2022-12-05T13:39:38.300Z,101744.47
2022-12-05T13:42:22.082Z,101738.59
2022-12-05T13:45:08.480Z,101746.41
2022-12-05T13:47:51.452Z,101749.88
2022-12-05T13:50:32.329Z,101746.66
2022-12-05T13:53:26.193Z,101744.78
2022-12-05T13:56:09.722Z,101743.25
2022-12-05T13:58:51.137Z,101751.91
2022-12-05T14:01:50.363Z,101744.25
2022-12-05T14:04:50.313Z,101742.31
2022-12-05T14:07:41.773Z,101739.69
2022-12-05T14:10:25.036Z,101734.44
2022-12-05T14:13:26.783Z,101736.16
2022-12-05T14:16:21.345Z,101729.13
2022-12-05T14:19:04.855Z,101732.75
2022-12-05T14:21:46.455Z,101730.97
2022-12-05T14:24:27.781Z,101738.00
2022-12-05T14:27:11.413Z,101744.19
2022-12-05T14:29:55.570Z,101739.84
2022-12-05T14:32:39.870Z,101731.22
2022-12-05T14:35:21.046Z,101746.97
2022-12-05T14:38:02.436Z,101741.72
2022-12-05T14:40:43.480Z,101734.19
2022-12-05T14:43:27.170Z,101728.97
2022-12-05T14:46:07.925Z,101732.50
2022-12-05T14:48:49.203Z,101730.88
2022-12-05T14:51:45.816Z,101730.13
2022-12-05T14:54:25.961Z,101724.72
2022-12-05T14:57:09.823Z,101729.13
2022-12-05T14:59:51.404Z,101724.88
2022-12-05T15:02:32.677Z,101727.34
2022-12-05T15:05:19.228Z,101727.50
2022-12-05T15:07:59.515Z,101719.91
2022-12-05T15:10:40.721Z,101722.41
2022-12-05T15:13:20.906Z,101722.47
2022-12-05T15:16:02.912Z,101725.88
2022-12-05T15:18:44.005Z,101730.28
2022-12-05T15:21:25.095Z,101737.38
2022-12-05T15:24:07.255Z,101746.94
2022-12-05T15:26:49.284Z,101751.41
2022-12-05T15:29:32.692Z,101746.47
2022-12-05T15:32:19.960Z,101753.56
2022-12-05T15:35:04.801Z,101760.66
2022-12-05T15:37:47.463Z,101759.56
2022-12-05T15:40:37.258Z,101763.91
2022-12-05T15:43:25.018Z,101757.72
2022-12-05T15:46:15.770Z,101759.50
2022-12-05T15:48:58.027Z,101759.50
2022-12-05T15:51:38.662Z,101760.34
2022-12-05T15:54:18.870Z,101764.66
2022-12-05T15:57:01.500Z,101775.09
2022-12-05T15:59:43.561Z,101774.25
2022-12-05T16:02:25.051Z,101785.66
2022-12-05T16:05:05.917Z,101786.59
2022-12-05T16:07:47.090Z,101795.38
2022-12-05T16:10:29.879Z,101788.38
2022-12-05T16:13:12.558Z,101801.34
2022-12-05T16:15:55.008Z,101798.78
2022-12-05T16:18:40.873Z,101797.09
2022-12-05T16:21:37.342Z,101804.97
2022-12-05T16:24:21.506Z,101804.19
2022-12-05T16:27:06.956Z,101809.34
2022-12-05T16:29:47.382Z,101814.69
2022-12-05T16:32:28.510Z,101817.31
2022-12-05T16:35:21.960Z,101819.94
2022-12-05T16:38:19.401Z,101823.41
2022-12-05T16:41:00.650Z,101836.53
2022-12-05T16:43:45.004Z,101847.88
2022-12-05T16:46:45.579Z,101836.53
2022-12-05T16:49:33.085Z,101839.16
2022-12-05T16:52:15.036Z,101835.66
2022-12-05T16:54:55.819Z,101844.47
2022-12-05T16:57:37.201Z,101849.72
2022-12-05T17:00:17.516Z,101851.41
2022-12-05T17:03:25.739Z,101853.97
2022-12-05T17:05:59.108Z,101847.88
2022-12-05T17:08:40.374Z,101849.56
2022-12-05T17:11:20.746Z,101853.13
2022-12-05T17:14:02.437Z,101860.22
2022-12-05T17:16:43.366Z,101864.69
2022-12-05T17:19:24.489Z,101864.69
2022-12-05T17:22:06.950Z,101868.16
2022-12-05T17:24:47.238Z,101867.22
2022-12-05T17:27:29.103Z,101869.84
2022-12-05T17:30:12.259Z,101872.47
2022-12-05T17:32:53.202Z,101870.72
2022-12-05T17:35:35.957Z,101869.00
2022-12-05T17:38:15.896Z,101869.00
2022-12-05T17:40:55.979Z,101871.63
2022-12-05T17:43:37.120Z,101863.75
2022-12-05T17:46:18.800Z,101876.97
2022-12-05T17:49:01.927Z,101877.81
2022-12-05T17:52:05.509Z,101876.81
2022-12-05T17:54:43.541Z,101886.44
2022-12-05T17:57:23.311Z,101887.31
2022-12-05T18:00:03.353Z,101886.44
2022-12-05T18:02:47.791Z,101891.69
2022-12-05T18:05:27.572Z,101884.75
2022-12-05T18:08:09.799Z,101886.53
2022-12-05T18:10:50.399Z,101886.53
2022-12-05T18:13:30.169Z,101894.41
2022-12-05T18:16:10.007Z,101896.03
2022-12-05T18:18:51.438Z,101895.25
2022-12-05T18:21:31.207Z,101897.88
2022-12-05T18:24:10.991Z,101902.34
2022-12-05T18:26:50.787Z,101901.56
2022-12-05T18:29:30.601Z,101901.63
2022-12-05T18:32:10.480Z,101902.56
2022-12-05T18:34:51.840Z,101901.50
2022-12-05T18:37:31.678Z,101902.34
2022-12-05T18:40:14.911Z,101900.78
2022-12-05T18:42:56.025Z,101898.94
2022-12-05T18:45:36.095Z,101911.13
2022-12-05T18:48:42.602Z,101908.72
2022-12-05T18:51:20.532Z,101917.38
2022-12-05T18:54:00.915Z,101911.28
2022-12-05T18:56:40.856Z,101915.59
2022-12-05T18:59:22.469Z,101917.31
2022-12-05T19:02:05.887Z,101921.78
2022-12-05T19:04:46.810Z,101906.13
2022-12-05T19:07:27.985Z,101905.13
2022-12-05T19:10:08.941Z,101906.03
2022-12-05T19:12:51.128Z,101910.50
2022-12-05T19:15:34.168Z,101912.97
2022-12-05T19:18:15.229Z,101924.41
2022-12-05T19:20:54.966Z,101920.94
2022-12-05T19:23:35.162Z,101926.19
2022-12-05T19:26:16.218Z,101930.56
2022-12-05T19:28:56.226Z,101930.66
2022-12-05T19:31:37.406Z,101935.03
2022-12-05T19:34:17.242Z,101923.88
2022-12-05T19:36:58.040Z,101927.28
2022-12-05T19:39:38.758Z,101917.63
2022-12-05T19:42:19.832Z,101921.13
2022-12-05T19:45:07.547Z,101917.56
2022-12-05T19:47:51.002Z,101917.72
2022-12-05T19:50:32.044Z,101909.06
2022-12-05T19:53:12.289Z,101916.78
2022-12-05T19:55:53.312Z,101915.94
2022-12-05T19:58:33.285Z,101915.94
2022-12-05T20:01:15.596Z,101921.34
2022-12-05T20:03:56.631Z,101915.22
2022-12-05T20:06:37.681Z,101910.00
2022-12-05T20:09:19.486Z,101922.19
2022-12-05T20:12:03.948Z,101917.84
2022-12-05T20:14:44.697Z,101917.09
2022-12-05T20:17:24.532Z,101925.72
2022-12-05T20:20:04.607Z,101919.56
2022-12-05T20:22:45.774Z,101919.63
2022-12-05T20:25:25.741Z,101914.47
2022-12-05T20:28:08.784Z,101912.69
2022-12-05T20:30:50.016Z,101914.38
2022-12-05T20:33:31.354Z,101911.84
2022-12-05T20:36:12.187Z,101910.00
2022-12-05T20:38:57.165Z,101904.75
2022-12-05T20:41:37.577Z,101904.75
2022-12-05T20:44:18.587Z,101897.78
2022-12-05T20:46:58.471Z,101896.88
2022-12-05T20:49:38.197Z,101890.84
2022-12-05T20:52:17.983Z,101896.25
2022-12-05T20:54:57.822Z,101892.69
2022-12-05T20:57:37.807Z,101894.41
2022-12-05T21:00:21.305Z,101891.78
2022-12-05T21:03:02.066Z,101886.59
2022-12-05T21:05:44.135Z,101884.97
2022-12-05T21:08:25.102Z,101889.56
2022-12-05T21:11:06.725Z,101886.81
2022-12-05T21:13:47.748Z,101886.88
2022-12-05T21:16:27.560Z,101891.13
2022-12-05T21:19:09.615Z,101895.53
2022-12-05T21:21:50.377Z,101892.00
2022-12-05T21:24:31.744Z,101885.03
2022-12-05T21:27:11.482Z,101885.13
2022-12-05T21:29:53.314Z,101882.75
2022-12-05T21:32:36.304Z,101894.81
2022-12-05T21:35:17.416Z,101894.94
2022-12-05T21:37:58.834Z,101889.69
2022-12-05T21:40:38.925Z,101881.69
2022-12-05T21:43:21.204Z,101880.97
2022-12-05T21:46:04.974Z,101879.06
2022-12-05T21:48:46.546Z,101887.78
2022-12-05T21:51:29.823Z,101889.56
2022-12-05T21:54:10.759Z,101890.41
2022-12-05T21:56:51.821Z,101892.25
2022-12-05T21:59:32.906Z,101892.25
2022-12-05T22:02:13.035Z,101886.22
2022-12-05T22:04:58.245Z,101886.94
2022-12-05T22:07:39.086Z,101885.44
2022-12-05T22:10:18.872Z,101891.47
2022-12-05T22:13:02.949Z,101882.75
2022-12-05T22:15:43.323Z,101882.91
2022-12-05T22:18:24.708Z,101888.16
2022-12-05T22:21:05.080Z,101873.53
2022-12-05T22:23:46.008Z,101883.81
2022-12-05T22:26:27.422Z,101884.88
2022-12-05T22:29:08.898Z,101882.13
2022-12-05T22:31:52.638Z,101872.41
2022-12-05T22:34:33.183Z,101877.72
2022-12-05T22:37:12.997Z,101880.28
2022-12-05T22:39:55.019Z,101872.41
2022-12-05T22:42:36.281Z,101864.75
2022-12-05T22:45:17.184Z,101863.91
2022-12-05T22:47:59.051Z,101865.75
2022-12-05T22:50:47.654Z,101866.53
2022-12-05T22:53:27.974Z,101859.59
2022-12-05T22:56:09.592Z,101857.81
2022-12-05T22:58:53.766Z,101861.28
2022-12-05T23:01:34.008Z,101855.13
2022-12-05T23:04:15.114Z,101849.03
2022-12-05T23:06:56.485Z,101849.16
2022-12-05T23:09:37.911Z,101850.13
2022-12-05T23:12:19.294Z,101850.13
2022-12-05T23:15:01.110Z,101848.38
2022-12-05T23:17:42.903Z,101839.66
2022-12-05T23:20:23.556Z,101849.28
2022-12-05T23:23:05.056Z,101851.97
2022-12-05T23:25:46.590Z,101848.44
2022-12-05T23:28:27.750Z,101841.63
2022-12-05T23:31:10.040Z,101838.09
2022-12-05T23:33:51.673Z,101846.16
2022-12-05T23:36:32.131Z,101839.00
2022-12-05T23:39:15.374Z,101833.91
2022-12-05T23:41:58.394Z,101834.06
2022-12-05T23:44:39.384Z,101836.47
2022-12-05T23:47:19.278Z,101833.97
2022-12-05T23:50:00.897Z,101833.28
2022-12-05T23:52:42.022Z,101834.75
2022-12-05T23:55:23.432Z,101833.06
2022-12-05T23:58:05.001Z,101832.28
